sensor_id;sensor_type;location;lat;lon;timestamp;P1;durP1;ratioP1;P2;durP2;ratioP2
3369;SDS011;42042;51.948;7.628;2022-11-20T00:01:29;26.98;;;15.90;;
3369;SDS011;42042;51.948;7.628;2022-11-20T00:03:57;25.42;;;15.63;;
3369;SDS011;42042;51.948;7.628;2022-11-20T00:06:25;25.85;;;14.75;;
3369;SDS011;42042;51.948;7.628;2022-11-20T00:08:54;22.42;;;16.20;;
3369;SDS011;42042;51.948;7.628;2022-11-20T00:11:22;22.33;;;15.73;;
3369;SDS011;42042;51.948;7.628;2022-11-20T00:13:51;27.10;;;15.90;;
3369;SDS011;42042;51.948;7.628;2022-11-20T00:16:21;22.70;;;15.73;;
3369;SDS011;42042;51.948;7.628;2022-11-20T00:18:48;21.77;;;15.52;;
3369;SDS011;42042;51.948;7.628;2022-11-20T00:21:16;21.25;;;15.57;;
3369;SDS011;42042;51.948;7.628;2022-11-20T00:23:43;22.23;;;14.45;;
3369;SDS011;42042;51.948;7.628;2022-11-20T00:26:11;22.98;;;15.38;;
3369;SDS011;42042;51.948;7.628;2022-11-20T00:28:39;18.95;;;14.27;;
3369;SDS011;42042;51.948;7.628;2022-11-20T00:31:07;22.70;;;14.85;;
3369;SDS011;42042;51.948;7.628;2022-11-20T00:33:35;24.80;;;15.32;;
3369;SDS011;42042;51.948;7.628;2022-11-20T00:36:03;18.58;;;14.75;;
3369;SDS011;42042;51.948;7.628;2022-11-20T00:38:30;22.17;;;14.25;;
3369;SDS011;42042;51.948;7.628;2022-11-20T00:40:58;20.60;;;14.55;;
3369;SDS011;42042;51.948;7.628;2022-11-20T00:43:25;23.63;;;14.30;;
3369;SDS011;42042;51.948;7.628;2022-11-20T00:45:56;25.45;;;14.93;;
3369;SDS011;42042;51.948;7.628;2022-11-20T00:48:23;25.10;;;14.93;;
3369;SDS011;42042;51.948;7.628;2022-11-20T00:50:52;27.25;;;16.20;;
3369;SDS011;42042;51.948;7.628;2022-11-20T00:53:19;24.60;;;16.67;;
3369;SDS011;42042;51.948;7.628;2022-11-20T00:55:52;22.55;;;15.35;;
3369;SDS011;42042;51.948;7.628;2022-11-20T00:58:19;20.48;;;15.40;;
3369;SDS011;42042;51.948;7.628;2022-11-20T01:00:47;22.63;;;14.98;;
3369;SDS011;42042;51.948;7.628;2022-11-20T01:03:15;24.98;;;16.27;;
3369;SDS011;42042;51.948;7.628;2022-11-20T01:05:42;21.95;;;14.80;;
3369;SDS011;42042;51.948;7.628;2022-11-20T01:08:10;25.10;;;16.70;;
3369;SDS011;42042;51.948;7.628;2022-11-20T01:10:38;21.80;;;16.05;;
3369;SDS011;42042;51.948;7.628;2022-11-20T01:13:05;24.48;;;16.55;;
3369;SDS011;42042;51.948;7.628;2022-11-20T01:15:50;23.85;;;16.20;;
3369;SDS011;42042;51.948;7.628;2022-11-20T01:18:17;26.83;;;17.30;;
3369;SDS011;42042;51.948;7.628;2022-11-20T01:20:44;23.35;;;16.38;;
3369;SDS011;42042;51.948;7.628;2022-11-20T01:23:12;25.52;;;17.80;;
3369;SDS011;42042;51.948;7.628;2022-11-20T01:25:40;25.90;;;15.82;;
3369;SDS011;42042;51.948;7.628;2022-11-20T01:28:07;26.23;;;17.40;;
3369;SDS011;42042;51.948;7.628;2022-11-20T01:30:34;24.20;;;16.77;;
3369;SDS011;42042;51.948;7.628;2022-11-20T01:33:01;24.40;;;16.02;;
3369;SDS011;42042;51.948;7.628;2022-11-20T01:35:28;32.20;;;18.67;;
3369;SDS011;42042;51.948;7.628;2022-11-20T01:37:55;23.60;;;16.88;;
3369;SDS011;42042;51.948;7.628;2022-11-20T01:40:24;24.95;;;16.30;;
3369;SDS011;42042;51.948;7.628;2022-11-20T01:42:52;22.45;;;16.00;;
3369;SDS011;42042;51.948;7.628;2022-11-20T01:45:52;27.25;;;17.23;;
3369;SDS011;42042;51.948;7.628;2022-11-20T01:48:23;29.05;;;17.13;;
3369;SDS011;42042;51.948;7.628;2022-11-20T01:50:51;25.38;;;16.42;;
3369;SDS011;42042;51.948;7.628;2022-11-20T01:53:21;25.00;;;15.90;;
3369;SDS011;42042;51.948;7.628;2022-11-20T01:55:53;25.67;;;18.25;;
3369;SDS011;42042;51.948;7.628;2022-11-20T01:58:22;26.52;;;17.15;;
3369;SDS011;42042;51.948;7.628;2022-11-20T02:00:52;23.08;;;16.70;;
3369;SDS011;42042;51.948;7.628;2022-11-20T02:03:20;28.17;;;16.45;;
3369;SDS011;42042;51.948;7.628;2022-11-20T02:05:48;24.25;;;16.80;;
3369;SDS011;42042;51.948;7.628;2022-11-20T02:08:16;22.10;;;16.02;;
3369;SDS011;42042;51.948;7.628;2022-11-20T02:10:44;30.25;;;16.60;;
3369;SDS011;42042;51.948;7.628;2022-11-20T02:13:13;38.50;;;21.75;;
3369;SDS011;42042;51.948;7.628;2022-11-20T02:15:57;40.40;;;21.60;;
3369;SDS011;42042;51.948;7.628;2022-11-20T02:18:25;42.90;;;23.45;;
3369;SDS011;42042;51.948;7.628;2022-11-20T02:20:53;34.65;;;21.15;;
3369;SDS011;42042;51.948;7.628;2022-11-20T02:23:21;41.60;;;23.20;;
3369;SDS011;42042;51.948;7.628;2022-11-20T02:25:52;31.70;;;20.60;;
3369;SDS011;42042;51.948;7.628;2022-11-20T02:28:19;35.47;;;22.27;;
3369;SDS011;42042;51.948;7.628;2022-11-20T02:30:46;31.38;;;20.95;;
3369;SDS011;42042;51.948;7.628;2022-11-20T02:33:13;32.42;;;20.40;;
3369;SDS011;42042;51.948;7.628;2022-11-20T02:35:44;36.13;;;18.67;;
3369;SDS011;42042;51.948;7.628;2022-11-20T02:38:11;30.40;;;20.27;;
3369;SDS011;42042;51.948;7.628;2022-11-20T02:40:39;36.70;;;21.52;;
3369;SDS011;42042;51.948;7.628;2022-11-20T02:43:08;34.10;;;21.52;;
3369;SDS011;42042;51.948;7.628;2022-11-20T02:45:35;34.28;;;20.42;;
3369;SDS011;42042;51.948;7.628;2022-11-20T02:48:02;34.22;;;22.45;;
3369;SDS011;42042;51.948;7.628;2022-11-20T02:50:29;31.95;;;20.90;;
3369;SDS011;42042;51.948;7.628;2022-11-20T02:52:57;41.67;;;21.70;;
3369;SDS011;42042;51.948;7.628;2022-11-20T02:55:24;33.60;;;20.70;;
3369;SDS011;42042;51.948;7.628;2022-11-20T02:57:51;35.88;;;23.00;;
3369;SDS011;42042;51.948;7.628;2022-11-20T03:00:20;29.23;;;19.23;;
3369;SDS011;42042;51.948;7.628;2022-11-20T03:02:47;33.60;;;20.92;;
3369;SDS011;42042;51.948;7.628;2022-11-20T03:05:14;34.03;;;19.88;;
3369;SDS011;42042;51.948;7.628;2022-11-20T03:07:43;37.55;;;20.98;;
3369;SDS011;42042;51.948;7.628;2022-11-20T03:10:10;30.75;;;19.38;;
3369;SDS011;42042;51.948;7.628;2022-11-20T03:12:37;36.30;;;23.75;;
3369;SDS011;42042;51.948;7.628;2022-11-20T03:15:05;36.92;;;22.92;;
3369;SDS011;42042;51.948;7.628;2022-11-20T03:17:33;29.15;;;20.92;;
3369;SDS011;42042;51.948;7.628;2022-11-20T03:20:00;31.42;;;22.75;;
3369;SDS011;42042;51.948;7.628;2022-11-20T03:22:28;29.65;;;19.13;;
3369;SDS011;42042;51.948;7.628;2022-11-20T03:24:56;30.05;;;20.88;;
3369;SDS011;42042;51.948;7.628;2022-11-20T03:27:23;30.33;;;20.33;;
3369;SDS011;42042;51.948;7.628;2022-11-20T03:29:50;27.70;;;18.70;;
3369;SDS011;42042;51.948;7.628;2022-11-20T03:32:17;28.30;;;19.30;;
3369;SDS011;42042;51.948;7.628;2022-11-20T03:34:46;33.95;;;19.98;;
3369;SDS011;42042;51.948;7.628;2022-11-20T03:37:13;32.42;;;18.75;;
3369;SDS011;42042;51.948;7.628;2022-11-20T03:39:40;30.25;;;19.85;;
3369;SDS011;42042;51.948;7.628;2022-11-20T03:42:08;34.03;;;20.55;;
3369;SDS011;42042;51.948;7.628;2022-11-20T03:44:55;30.02;;;19.70;;
3369;SDS011;42042;51.948;7.628;2022-11-20T03:47:23;28.10;;;19.77;;
3369;SDS011;42042;51.948;7.628;2022-11-20T03:49:51;30.83;;;20.25;;
3369;SDS011;42042;51.948;7.628;2022-11-20T03:52:18;33.90;;;21.80;;
3369;SDS011;42042;51.948;7.628;2022-11-20T03:54:45;33.47;;;20.75;;
3369;SDS011;42042;51.948;7.628;2022-11-20T03:57:13;41.58;;;21.60;;
3369;SDS011;42042;51.948;7.628;2022-11-20T03:59:40;29.70;;;18.65;;
3369;SDS011;42042;51.948;7.628;2022-11-20T04:02:07;28.02;;;19.20;;
3369;SDS011;42042;51.948;7.628;2022-11-20T04:04:34;45.88;;;23.65;;
3369;SDS011;42042;51.948;7.628;2022-11-20T04:07:03;39.72;;;23.17;;
3369;SDS011;42042;51.948;7.628;2022-11-20T04:09:30;50.47;;;28.08;;
3369;SDS011;42042;51.948;7.628;2022-11-20T04:11:57;47.63;;;25.80;;
3369;SDS011;42042;51.948;7.628;2022-11-20T04:14:24;43.63;;;26.42;;
3369;SDS011;42042;51.948;7.628;2022-11-20T04:16:52;45.17;;;25.10;;
3369;SDS011;42042;51.948;7.628;2022-11-20T04:19:19;53.85;;;26.60;;
3369;SDS011;42042;51.948;7.628;2022-11-20T04:21:46;44.72;;;26.65;;
3369;SDS011;42042;51.948;7.628;2022-11-20T04:24:14;54.70;;;28.10;;
3369;SDS011;42042;51.948;7.628;2022-11-20T04:26:42;52.00;;;27.75;;
3369;SDS011;42042;51.948;7.628;2022-11-20T04:29:10;54.10;;;31.17;;
3369;SDS011;42042;51.948;7.628;2022-11-20T04:31:37;55.65;;;29.80;;
3369;SDS011;42042;51.948;7.628;2022-11-20T04:34:05;48.90;;;28.35;;
3369;SDS011;42042;51.948;7.628;2022-11-20T04:36:32;47.55;;;29.10;;
3369;SDS011;42042;51.948;7.628;2022-11-20T04:39:00;47.20;;;25.95;;
3369;SDS011;42042;51.948;7.628;2022-11-20T04:41:29;40.17;;;24.27;;
3369;SDS011;42042;51.948;7.628;2022-11-20T04:43:57;41.60;;;22.73;;
3369;SDS011;42042;51.948;7.628;2022-11-20T04:46:27;35.60;;;23.58;;
3369;SDS011;42042;51.948;7.628;2022-11-20T04:48:54;31.02;;;21.30;;
3369;SDS011;42042;51.948;7.628;2022-11-20T04:51:22;35.13;;;21.00;;
3369;SDS011;42042;51.948;7.628;2022-11-20T04:53:49;33.35;;;21.17;;
3369;SDS011;42042;51.948;7.628;2022-11-20T04:56:16;29.85;;;21.13;;
3369;SDS011;42042;51.948;7.628;2022-11-20T04:58:45;28.98;;;19.20;;
3369;SDS011;42042;51.948;7.628;2022-11-20T05:01:13;34.95;;;20.60;;
3369;SDS011;42042;51.948;7.628;2022-11-20T05:03:41;33.40;;;21.52;;
3369;SDS011;42042;51.948;7.628;2022-11-20T05:06:08;36.40;;;20.55;;
3369;SDS011;42042;51.948;7.628;2022-11-20T05:08:36;35.05;;;21.73;;
3369;SDS011;42042;51.948;7.628;2022-11-20T05:11:03;31.23;;;20.42;;
3369;SDS011;42042;51.948;7.628;2022-11-20T05:13:31;34.58;;;23.98;;
3369;SDS011;42042;51.948;7.628;2022-11-20T05:16:02;34.03;;;20.92;;
3369;SDS011;42042;51.948;7.628;2022-11-20T05:18:29;29.88;;;20.35;;
3369;SDS011;42042;51.948;7.628;2022-11-20T05:20:56;28.65;;;19.63;;
3369;SDS011;42042;51.948;7.628;2022-11-20T05:23:23;29.27;;;20.02;;
3369;SDS011;42042;51.948;7.628;2022-11-20T05:25:51;29.63;;;19.40;;
3369;SDS011;42042;51.948;7.628;2022-11-20T05:28:18;39.58;;;23.05;;
3369;SDS011;42042;51.948;7.628;2022-11-20T05:30:46;35.22;;;23.08;;
3369;SDS011;42042;51.948;7.628;2022-11-20T05:33:14;46.10;;;24.38;;
3369;SDS011;42042;51.948;7.628;2022-11-20T05:35:41;51.58;;;26.70;;
3369;SDS011;42042;51.948;7.628;2022-11-20T05:38:09;50.10;;;25.63;;
3369;SDS011;42042;51.948;7.628;2022-11-20T05:40:36;48.70;;;23.83;;
3369;SDS011;42042;51.948;7.628;2022-11-20T05:43:03;45.08;;;24.85;;
3369;SDS011;42042;51.948;7.628;2022-11-20T05:45:31;60.47;;;27.52;;
3369;SDS011;42042;51.948;7.628;2022-11-20T05:47:58;61.25;;;26.10;;
3369;SDS011;42042;51.948;7.628;2022-11-20T05:50:27;59.65;;;27.60;;
3369;SDS011;42042;51.948;7.628;2022-11-20T05:52:54;65.25;;;29.15;;
3369;SDS011;42042;51.948;7.628;2022-11-20T05:55:21;68.00;;;29.65;;
3369;SDS011;42042;51.948;7.628;2022-11-20T05:57:49;62.20;;;28.67;;
3369;SDS011;42042;51.948;7.628;2022-11-20T06:00:16;62.00;;;25.48;;
3369;SDS011;42042;51.948;7.628;2022-11-20T06:02:43;68.07;;;25.55;;
3369;SDS011;42042;51.948;7.628;2022-11-20T06:05:10;59.72;;;27.80;;
3369;SDS011;42042;51.948;7.628;2022-11-20T06:07:39;69.80;;;27.83;;
3369;SDS011;42042;51.948;7.628;2022-11-20T06:10:06;79.80;;;28.60;;
3369;SDS011;42042;51.948;7.628;2022-11-20T06:12:33;57.22;;;26.42;;
3369;SDS011;42042;51.948;7.628;2022-11-20T06:15:01;63.92;;;29.05;;
3369;SDS011;42042;51.948;7.628;2022-11-20T06:17:28;79.85;;;28.15;;
3369;SDS011;42042;51.948;7.628;2022-11-20T06:19:55;76.05;;;28.33;;
3369;SDS011;42042;51.948;7.628;2022-11-20T06:22:22;69.03;;;28.67;;
3369;SDS011;42042;51.948;7.628;2022-11-20T06:24:51;57.83;;;28.23;;
3369;SDS011;42042;51.948;7.628;2022-11-20T06:27:18;53.65;;;25.63;;
3369;SDS011;42042;51.948;7.628;2022-11-20T06:29:45;68.75;;;28.05;;
3369;SDS011;42042;51.948;7.628;2022-11-20T06:32:12;62.35;;;30.42;;
3369;SDS011;42042;51.948;7.628;2022-11-20T06:34:39;72.93;;;31.00;;
3369;SDS011;42042;51.948;7.628;2022-11-20T06:37:06;67.82;;;29.65;;
3369;SDS011;42042;51.948;7.628;2022-11-20T06:39:34;72.72;;;30.67;;
3369;SDS011;42042;51.948;7.628;2022-11-20T06:42:02;87.38;;;30.13;;
3369;SDS011;42042;51.948;7.628;2022-11-20T06:44:29;105.13;;;29.45;;
3369;SDS011;42042;51.948;7.628;2022-11-20T06:46:56;108.03;;;34.10;;
3369;SDS011;42042;51.948;7.628;2022-11-20T06:49:24;73.55;;;30.88;;
3369;SDS011;42042;51.948;7.628;2022-11-20T06:51:51;97.15;;;32.53;;
3369;SDS011;42042;51.948;7.628;2022-11-20T06:54:18;126.72;;;35.47;;
3369;SDS011;42042;51.948;7.628;2022-11-20T06:56:46;81.00;;;32.58;;
3369;SDS011;42042;51.948;7.628;2022-11-20T06:59:15;84.88;;;32.55;;
3369;SDS011;42042;51.948;7.628;2022-11-20T07:01:42;82.90;;;33.45;;
3369;SDS011;42042;51.948;7.628;2022-11-20T07:04:09;77.03;;;34.05;;
3369;SDS011;42042;51.948;7.628;2022-11-20T07:06:36;79.85;;;31.98;;
3369;SDS011;42042;51.948;7.628;2022-11-20T07:09:03;71.72;;;31.52;;
3369;SDS011;42042;51.948;7.628;2022-11-20T07:11:31;76.18;;;32.80;;
3369;SDS011;42042;51.948;7.628;2022-11-20T07:13:58;77.57;;;34.20;;
3369;SDS011;42042;51.948;7.628;2022-11-20T07:16:26;100.45;;;34.72;;
3369;SDS011;42042;51.948;7.628;2022-11-20T07:18:53;97.03;;;34.83;;
3369;SDS011;42042;51.948;7.628;2022-11-20T07:21:21;76.25;;;30.88;;
3369;SDS011;42042;51.948;7.628;2022-11-20T07:23:48;81.78;;;34.90;;
3369;SDS011;42042;51.948;7.628;2022-11-20T07:26:15;90.00;;;31.50;;
3369;SDS011;42042;51.948;7.628;2022-11-20T07:28:43;84.03;;;28.50;;
3369;SDS011;42042;51.948;7.628;2022-11-20T07:31:11;81.00;;;25.40;;
3369;SDS011;42042;51.948;7.628;2022-11-20T07:33:39;121.47;;;26.65;;
3369;SDS011;42042;51.948;7.628;2022-11-20T07:36:07;99.47;;;24.23;;
3369;SDS011;42042;51.948;7.628;2022-11-20T07:38:34;98.20;;;26.67;;
3369;SDS011;42042;51.948;7.628;2022-11-20T07:41:01;75.82;;;24.10;;
3369;SDS011;42042;51.948;7.628;2022-11-20T07:43:28;67.50;;;25.58;;
3369;SDS011;42042;51.948;7.628;2022-11-20T07:45:56;74.63;;;20.80;;
3369;SDS011;42042;51.948;7.628;2022-11-20T07:48:23;62.40;;;22.27;;
3369;SDS011;42042;51.948;7.628;2022-11-20T07:51:04;69.60;;;24.58;;
3369;SDS011;42042;51.948;7.628;2022-11-20T07:53:31;60.88;;;21.48;;
3369;SDS011;42042;51.948;7.628;2022-11-20T07:55:59;56.75;;;23.15;;
3369;SDS011;42042;51.948;7.628;2022-11-20T07:58:27;45.53;;;20.75;;
3369;SDS011;42042;51.948;7.628;2022-11-20T08:00:55;51.10;;;23.25;;
3369;SDS011;42042;51.948;7.628;2022-11-20T08:03:22;49.60;;;20.13;;
3369;SDS011;42042;51.948;7.628;2022-11-20T08:05:50;51.38;;;21.52;;
3369;SDS011;42042;51.948;7.628;2022-11-20T08:08:18;51.63;;;25.10;;
3369;SDS011;42042;51.948;7.628;2022-11-20T08:10:46;58.72;;;24.08;;
3369;SDS011;42042;51.948;7.628;2022-11-20T08:13:13;53.80;;;22.15;;
3369;SDS011;42042;51.948;7.628;2022-11-20T08:15:58;57.10;;;24.58;;
3369;SDS011;42042;51.948;7.628;2022-11-20T08:18:25;53.40;;;21.63;;
3369;SDS011;42042;51.948;7.628;2022-11-20T08:20:52;58.80;;;22.52;;
3369;SDS011;42042;51.948;7.628;2022-11-20T08:23:22;48.97;;;22.27;;
3369;SDS011;42042;51.948;7.628;2022-11-20T08:25:49;47.55;;;21.25;;
3369;SDS011;42042;51.948;7.628;2022-11-20T08:28:17;56.08;;;23.20;;
3369;SDS011;42042;51.948;7.628;2022-11-20T08:30:44;48.00;;;22.20;;
3369;SDS011;42042;51.948;7.628;2022-11-20T08:33:11;48.75;;;24.77;;
3369;SDS011;42042;51.948;7.628;2022-11-20T08:35:38;41.63;;;23.27;;
3369;SDS011;42042;51.948;7.628;2022-11-20T08:38:06;51.60;;;25.45;;
3369;SDS011;42042;51.948;7.628;2022-11-20T08:40:34;41.92;;;22.77;;
3369;SDS011;42042;51.948;7.628;2022-11-20T08:43:01;53.63;;;24.58;;
3369;SDS011;42042;51.948;7.628;2022-11-20T08:45:29;48.88;;;25.85;;
3369;SDS011;42042;51.948;7.628;2022-11-20T08:47:59;55.30;;;26.02;;
3369;SDS011;42042;51.948;7.628;2022-11-20T08:50:27;47.38;;;24.35;;
3369;SDS011;42042;51.948;7.628;2022-11-20T08:53:01;49.50;;;25.02;;
3369;SDS011;42042;51.948;7.628;2022-11-20T08:55:28;51.30;;;25.45;;
3369;SDS011;42042;51.948;7.628;2022-11-20T08:57:57;51.17;;;27.33;;
3369;SDS011;42042;51.948;7.628;2022-11-20T09:00:24;45.95;;;24.13;;
3369;SDS011;42042;51.948;7.628;2022-11-20T09:02:51;48.58;;;26.23;;
3369;SDS011;42042;51.948;7.628;2022-11-20T09:05:18;52.65;;;28.52;;
3369;SDS011;42042;51.948;7.628;2022-11-20T09:07:45;43.92;;;24.38;;
3369;SDS011;42042;51.948;7.628;2022-11-20T09:10:13;41.92;;;24.55;;
3369;SDS011;42042;51.948;7.628;2022-11-20T09:12:40;49.70;;;27.77;;
3369;SDS011;42042;51.948;7.628;2022-11-20T09:15:09;48.90;;;24.70;;
3369;SDS011;42042;51.948;7.628;2022-11-20T09:17:36;52.13;;;23.45;;
3369;SDS011;42042;51.948;7.628;2022-11-20T09:20:04;43.70;;;25.58;;
3369;SDS011;42042;51.948;7.628;2022-11-20T09:22:31;49.70;;;26.85;;
3369;SDS011;42042;51.948;7.628;2022-11-20T09:24:58;46.15;;;27.15;;
3369;SDS011;42042;51.948;7.628;2022-11-20T09:27:26;56.35;;;26.63;;
3369;SDS011;42042;51.948;7.628;2022-11-20T09:29:53;48.47;;;27.60;;
3369;SDS011;42042;51.948;7.628;2022-11-20T09:32:21;48.83;;;27.20;;
3369;SDS011;42042;51.948;7.628;2022-11-20T09:34:48;51.70;;;25.50;;
3369;SDS011;42042;51.948;7.628;2022-11-20T09:37:16;45.00;;;25.42;;
3369;SDS011;42042;51.948;7.628;2022-11-20T09:39:43;56.42;;;28.92;;
3369;SDS011;42042;51.948;7.628;2022-11-20T09:42:14;48.55;;;25.92;;
3369;SDS011;42042;51.948;7.628;2022-11-20T09:44:48;51.03;;;26.35;;
3369;SDS011;42042;51.948;7.628;2022-11-20T09:47:17;48.60;;;28.77;;
3369;SDS011;42042;51.948;7.628;2022-11-20T09:49:53;54.42;;;28.17;;
3369;SDS011;42042;51.948;7.628;2022-11-20T09:52:27;46.53;;;26.10;;
3369;SDS011;42042;51.948;7.628;2022-11-20T09:54:57;46.35;;;26.55;;
3369;SDS011;42042;51.948;7.628;2022-11-20T09:57:25;48.00;;;27.48;;
3369;SDS011;42042;51.948;7.628;2022-11-20T09:59:56;51.65;;;28.63;;
3369;SDS011;42042;51.948;7.628;2022-11-20T10:02:26;51.33;;;29.35;;
3369;SDS011;42042;51.948;7.628;2022-11-20T10:04:57;48.35;;;27.48;;
3369;SDS011;42042;51.948;7.628;2022-11-20T10:07:27;46.28;;;24.75;;
3369;SDS011;42042;51.948;7.628;2022-11-20T10:09:56;48.03;;;29.05;;
3369;SDS011;42042;51.948;7.628;2022-11-20T10:12:26;47.33;;;26.33;;
3369;SDS011;42042;51.948;7.628;2022-11-20T10:15:01;44.45;;;28.33;;
3369;SDS011;42042;51.948;7.628;2022-11-20T10:17:42;48.05;;;26.98;;
3369;SDS011;42042;51.948;7.628;2022-11-20T10:20:18;57.13;;;31.13;;
3369;SDS011;42042;51.948;7.628;2022-11-20T10:22:50;41.28;;;26.15;;
3369;SDS011;42042;51.948;7.628;2022-11-20T10:25:20;41.17;;;27.38;;
3369;SDS011;42042;51.948;7.628;2022-11-20T10:27:53;44.17;;;27.88;;
3369;SDS011;42042;51.948;7.628;2022-11-20T10:30:23;41.95;;;24.85;;
3369;SDS011;42042;51.948;7.628;2022-11-20T10:32:52;38.83;;;24.08;;
3369;SDS011;42042;51.948;7.628;2022-11-20T10:35:21;31.02;;;19.98;;
3369;SDS011;42042;51.948;7.628;2022-11-20T10:37:58;39.45;;;23.95;;
3369;SDS011;42042;51.948;7.628;2022-11-20T10:40:28;36.50;;;23.23;;
3369;SDS011;42042;51.948;7.628;2022-11-20T10:42:59;39.25;;;23.15;;
3369;SDS011;42042;51.948;7.628;2022-11-20T10:45:31;37.08;;;24.25;;
3369;SDS011;42042;51.948;7.628;2022-11-20T10:48:04;36.78;;;22.33;;
3369;SDS011;42042;51.948;7.628;2022-11-20T10:50:36;34.88;;;22.65;;
3369;SDS011;42042;51.948;7.628;2022-11-20T10:53:08;34.50;;;23.42;;
3369;SDS011;42042;51.948;7.628;2022-11-20T10:55:42;35.58;;;21.90;;
3369;SDS011;42042;51.948;7.628;2022-11-20T10:58:13;33.58;;;25.55;;
3369;SDS011;42042;51.948;7.628;2022-11-20T11:00:40;38.00;;;23.80;;
3369;SDS011;42042;51.948;7.628;2022-11-20T11:03:22;30.83;;;21.90;;
3369;SDS011;42042;51.948;7.628;2022-11-20T11:05:53;33.03;;;22.98;;
3369;SDS011;42042;51.948;7.628;2022-11-20T11:08:21;33.33;;;20.50;;
3369;SDS011;42042;51.948;7.628;2022-11-20T11:10:51;34.60;;;24.10;;
3369;SDS011;42042;51.948;7.628;2022-11-20T11:13:20;32.95;;;21.55;;
3369;SDS011;42042;51.948;7.628;2022-11-20T11:15:47;42.15;;;28.77;;
3369;SDS011;42042;51.948;7.628;2022-11-20T11:18:22;29.23;;;20.02;;
3369;SDS011;42042;51.948;7.628;2022-11-20T11:20:51;26.95;;;19.13;;
3369;SDS011;42042;51.948;7.628;2022-11-20T11:23:28;33.13;;;20.60;;
3369;SDS011;42042;51.948;7.628;2022-11-20T11:25:56;29.20;;;19.67;;
3369;SDS011;42042;51.948;7.628;2022-11-20T11:28:24;25.10;;;18.48;;
3369;SDS011;42042;51.948;7.628;2022-11-20T11:30:53;30.15;;;19.77;;
3369;SDS011;42042;51.948;7.628;2022-11-20T11:33:21;21.15;;;14.93;;
3369;SDS011;42042;51.948;7.628;2022-11-20T11:35:49;21.45;;;16.85;;
3369;SDS011;42042;51.948;7.628;2022-11-20T11:38:21;22.48;;;15.57;;
3369;SDS011;42042;51.948;7.628;2022-11-20T11:40:48;21.52;;;14.90;;
3369;SDS011;42042;51.948;7.628;2022-11-20T11:43:17;21.52;;;14.57;;
3369;SDS011;42042;51.948;7.628;2022-11-20T11:45:59;21.60;;;15.48;;
3369;SDS011;42042;51.948;7.628;2022-11-20T11:48:27;18.50;;;13.13;;
3369;SDS011;42042;51.948;7.628;2022-11-20T11:50:54;17.48;;;13.52;;
3369;SDS011;42042;51.948;7.628;2022-11-20T11:53:23;18.80;;;14.20;;
3369;SDS011;42042;51.948;7.628;2022-11-20T11:55:55;18.73;;;12.75;;
3369;SDS011;42042;51.948;7.628;2022-11-20T11:58:28;17.42;;;13.20;;
3369;SDS011;42042;51.948;7.628;2022-11-20T12:01:00;15.27;;;11.77;;
3369;SDS011;42042;51.948;7.628;2022-11-20T12:03:29;15.52;;;11.70;;
3369;SDS011;42042;51.948;7.628;2022-11-20T12:06:01;15.98;;;12.57;;
3369;SDS011;42042;51.948;7.628;2022-11-20T12:08:40;14.73;;;10.77;;
3369;SDS011;42042;51.948;7.628;2022-11-20T12:11:11;13.85;;;11.30;;
3369;SDS011;42042;51.948;7.628;2022-11-20T12:13:40;15.68;;;11.13;;
3369;SDS011;42042;51.948;7.628;2022-11-20T12:16:10;12.60;;;10.55;;
3369;SDS011;42042;51.948;7.628;2022-11-20T12:18:38;16.38;;;10.88;;
3369;SDS011;42042;51.948;7.628;2022-11-20T12:21:09;19.40;;;11.18;;
3369;SDS011;42042;51.948;7.628;2022-11-20T12:23:41;14.18;;;10.60;;
3369;SDS011;42042;51.948;7.628;2022-11-20T12:26:13;15.82;;;11.88;;
3369;SDS011;42042;51.948;7.628;2022-11-20T12:28:44;17.13;;;10.57;;
3369;SDS011;42042;51.948;7.628;2022-11-20T12:31:21;15.27;;;11.35;;
3369;SDS011;42042;51.948;7.628;2022-11-20T12:33:56;13.85;;;11.52;;
3369;SDS011;42042;51.948;7.628;2022-11-20T12:36:27;13.55;;;10.35;;
3369;SDS011;42042;51.948;7.628;2022-11-20T12:41:49;14.18;;;10.68;;
3369;SDS011;42042;51.948;7.628;2022-11-20T12:44:51;18.75;;;14.55;;
3369;SDS011;42042;51.948;7.628;2022-11-20T12:47:46;18.35;;;12.25;;
3369;SDS011;42042;51.948;7.628;2022-11-20T12:50:15;19.00;;;11.63;;
3369;SDS011;42042;51.948;7.628;2022-11-20T12:52:45;18.52;;;14.80;;
3369;SDS011;42042;51.948;7.628;2022-11-20T12:55:21;18.92;;;13.23;;
3369;SDS011;42042;51.948;7.628;2022-11-20T12:57:53;16.63;;;13.50;;
3369;SDS011;42042;51.948;7.628;2022-11-20T13:00:21;21.17;;;14.45;;
3369;SDS011;42042;51.948;7.628;2022-11-20T13:03:00;21.23;;;15.25;;
3369;SDS011;42042;51.948;7.628;2022-11-20T13:05:35;21.98;;;15.20;;
3369;SDS011;42042;51.948;7.628;2022-11-20T13:08:03;20.15;;;13.52;;
3369;SDS011;42042;51.948;7.628;2022-11-20T13:10:37;24.02;;;16.30;;
3369;SDS011;42042;51.948;7.628;2022-11-20T13:13:10;19.80;;;14.10;;
3369;SDS011;42042;51.948;7.628;2022-11-20T13:15:43;24.38;;;16.58;;
3369;SDS011;42042;51.948;7.628;2022-11-20T13:18:13;20.58;;;15.77;;
3369;SDS011;42042;51.948;7.628;2022-11-20T13:20:41;27.05;;;18.77;;
3369;SDS011;42042;51.948;7.628;2022-11-20T13:23:09;27.38;;;18.65;;
3369;SDS011;42042;51.948;7.628;2022-11-20T13:25:37;41.55;;;25.92;;
3369;SDS011;42042;51.948;7.628;2022-11-20T13:28:24;33.20;;;21.80;;
3369;SDS011;42042;51.948;7.628;2022-11-20T13:30:54;35.38;;;21.40;;
3369;SDS011;42042;51.948;7.628;2022-11-20T13:33:22;28.35;;;19.30;;
3369;SDS011;42042;51.948;7.628;2022-11-20T13:35:54;30.20;;;19.60;;
3369;SDS011;42042;51.948;7.628;2022-11-20T13:38:22;36.45;;;21.50;;
3369;SDS011;42042;51.948;7.628;2022-11-20T13:40:53;36.50;;;21.63;;
3369;SDS011;42042;51.948;7.628;2022-11-20T13:43:28;33.67;;;20.45;;
3369;SDS011;42042;51.948;7.628;2022-11-20T13:45:58;43.42;;;23.85;;
3369;SDS011;42042;51.948;7.628;2022-11-20T13:48:26;44.25;;;24.73;;
3369;SDS011;42042;51.948;7.628;2022-11-20T13:56:29;34.85;;;22.73;;
3369;SDS011;42042;51.948;7.628;2022-11-20T13:59:02;36.38;;;22.02;;
3369;SDS011;42042;51.948;7.628;2022-11-20T14:01:33;31.50;;;20.77;;
3369;SDS011;42042;51.948;7.628;2022-11-20T14:04:01;36.33;;;22.42;;
3369;SDS011;42042;51.948;7.628;2022-11-20T14:06:34;29.58;;;20.23;;
3369;SDS011;42042;51.948;7.628;2022-11-20T14:09:10;34.97;;;22.33;;
3369;SDS011;42042;51.948;7.628;2022-11-20T14:11:37;33.28;;;22.50;;
3369;SDS011;42042;51.948;7.628;2022-11-20T14:14:13;33.53;;;22.15;;
3369;SDS011;42042;51.948;7.628;2022-11-20T14:16:42;33.78;;;22.85;;
3369;SDS011;42042;51.948;7.628;2022-11-20T14:19:19;30.90;;;21.92;;
3369;SDS011;42042;51.948;7.628;2022-11-20T14:21:51;39.25;;;24.90;;
3369;SDS011;42042;51.948;7.628;2022-11-20T14:24:18;31.60;;;21.88;;
3369;SDS011;42042;51.948;7.628;2022-11-20T14:26:46;32.30;;;22.88;;
3369;SDS011;42042;51.948;7.628;2022-11-20T14:29:13;35.53;;;23.33;;
3369;SDS011;42042;51.948;7.628;2022-11-20T14:31:42;35.05;;;22.30;;
3369;SDS011;42042;51.948;7.628;2022-11-20T14:34:12;38.17;;;24.65;;
3369;SDS011;42042;51.948;7.628;2022-11-20T14:36:42;35.35;;;23.75;;
3369;SDS011;42042;51.948;7.628;2022-11-20T14:39:10;37.17;;;23.25;;
3369;SDS011;42042;51.948;7.628;2022-11-20T14:41:38;35.33;;;22.30;;
3369;SDS011;42042;51.948;7.628;2022-11-20T14:44:05;31.10;;;20.58;;
3369;SDS011;42042;51.948;7.628;2022-11-20T14:46:33;33.55;;;21.50;;
3369;SDS011;42042;51.948;7.628;2022-11-20T14:49:01;34.13;;;20.58;;
3369;SDS011;42042;51.948;7.628;2022-11-20T14:51:30;30.35;;;20.45;;
3369;SDS011;42042;51.948;7.628;2022-11-20T14:54:07;38.75;;;21.73;;